Terminal Aerodrome Forecast
Issued by NWS Mt. Holly, NJ

Current Version | Previous Version | Text Only | Print | Product List | Glossary On
Versions: 1 2 3 4 5 6 7 8 9 10 11 12 13 14
000
FTUS41 KPHI 232300 RRA
TAFRDG
TAF
KRDG 232340Z 2400/2424 15004KT P6SM SCT050 BKN150
     FM240200 VRB02KT P6SM SCT025 OVC050
     FM240400 12004KT 5SM -RA BR SCT008 OVC020 WS020/17035KT
     FM240600 14006KT 2SM RA BR BKN004 OVC010 WS020/17045KT
     FM240800 17010G18KT 4SM -RA BR OVC005 WS020/20045KT
     FM241400 20012G22KT P6SM -SHRA SCT008 OVC015
     FM241700 20014G24KT P6SM SCT020 BKN050=

USA.gov is the U.S. government's official web portal to all federal, state and local government web resources and services.